sensor_id;sensor_type;location;lat;lon;timestamp;temperature;humidity
71668;DHT22;59504;54.806;9.640;2022-07-29T00:01:44;12.70;64.40
71668;DHT22;59504;54.806;9.640;2022-07-29T00:03:45;12.70;64.50
71668;DHT22;59504;54.806;9.640;2022-07-29T00:05:45;12.70;64.40
71668;DHT22;59504;54.806;9.640;2022-07-29T00:07:46;12.70;64.30
71668;DHT22;59504;54.806;9.640;2022-07-29T00:09:47;12.70;64.20
71668;DHT22;59504;54.806;9.640;2022-07-29T00:11:48;12.70;64.00
71668;DHT22;59504;54.806;9.640;2022-07-29T00:13:48;12.60;63.80
71668;DHT22;59504;54.806;9.640;2022-07-29T00:15:49;12.60;63.60
71668;DHT22;59504;54.806;9.640;2022-07-29T00:17:50;12.60;63.50
71668;DHT22;59504;54.806;9.640;2022-07-29T00:19:51;12.60;63.40
71668;DHT22;59504;54.806;9.640;2022-07-29T00:21:52;12.50;63.30
71668;DHT22;59504;54.806;9.640;2022-07-29T00:23:52;12.50;63.00
71668;DHT22;59504;54.806;9.640;2022-07-29T00:25:53;12.50;63.60
71668;DHT22;59504;54.806;9.640;2022-07-29T00:27:54;12.50;63.70
71668;DHT22;59504;54.806;9.640;2022-07-29T00:29:54;12.50;63.70
71668;DHT22;59504;54.806;9.640;2022-07-29T00:31:55;12.40;63.80
71668;DHT22;59504;54.806;9.640;2022-07-29T00:33:56;12.40;64.00
71668;DHT22;59504;54.806;9.640;2022-07-29T00:35:57;12.40;64.30
71668;DHT22;59504;54.806;9.640;2022-07-29T00:37:58;12.40;64.40
71668;DHT22;59504;54.806;9.640;2022-07-29T00:39:58;12.40;64.50
71668;DHT22;59504;54.806;9.640;2022-07-29T00:42:02;12.30;64.60
71668;DHT22;59504;54.806;9.640;2022-07-29T00:44:23;12.30;64.70
71668;DHT22;59504;54.806;9.640;2022-07-29T00:46:44;12.30;64.80
71668;DHT22;59504;54.806;9.640;2022-07-29T00:49:04;12.30;64.90
71668;DHT22;59504;54.806;9.640;2022-07-29T00:51:06;12.40;65.10
71668;DHT22;59504;54.806;9.640;2022-07-29T00:53:08;12.30;65.20
71668;DHT22;59504;54.806;9.640;2022-07-29T00:55:11;12.30;65.30
71668;DHT22;59504;54.806;9.640;2022-07-29T00:57:12;12.30;65.60
71668;DHT22;59504;54.806;9.640;2022-07-29T00:59:13;12.30;65.70
71668;DHT22;59504;54.806;9.640;2022-07-29T01:01:13;12.30;65.70
71668;DHT22;59504;54.806;9.640;2022-07-29T01:03:14;12.20;65.80
71668;DHT22;59504;54.806;9.640;2022-07-29T01:05:17;12.30;65.80
71668;DHT22;59504;54.806;9.640;2022-07-29T01:07:18;12.30;65.80
71668;DHT22;59504;54.806;9.640;2022-07-29T01:09:20;12.20;65.60
71668;DHT22;59504;54.806;9.640;2022-07-29T01:11:21;12.20;65.50
71668;DHT22;59504;54.806;9.640;2022-07-29T01:13:21;12.20;65.30
71668;DHT22;59504;54.806;9.640;2022-07-29T01:15:23;12.20;66.00
71668;DHT22;59504;54.806;9.640;2022-07-29T01:17:24;12.20;65.30
71668;DHT22;59504;54.806;9.640;2022-07-29T01:19:48;12.20;65.30
71668;DHT22;59504;54.806;9.640;2022-07-29T01:21:54;12.10;65.30
71668;DHT22;59504;54.806;9.640;2022-07-29T01:30:46;12.00;64.80
71668;DHT22;59504;54.806;9.640;2022-07-29T01:32:54;12.00;64.50
71668;DHT22;59504;54.806;9.640;2022-07-29T01:35:06;12.00;64.40
71668;DHT22;59504;54.806;9.640;2022-07-29T01:38:05;12.00;64.60
71668;DHT22;59504;54.806;9.640;2022-07-29T01:39:41;11.90;64.60
71668;DHT22;59504;54.806;9.640;2022-07-29T01:42:05;11.90;65.20
71668;DHT22;59504;54.806;9.640;2022-07-29T01:44:16;11.90;64.80
71668;DHT22;59504;54.806;9.640;2022-07-29T01:46:29;11.90;64.60
71668;DHT22;59504;54.806;9.640;2022-07-29T01:48:42;11.80;64.70
71668;DHT22;59504;54.806;9.640;2022-07-29T01:50:52;11.80;64.70
71668;DHT22;59504;54.806;9.640;2022-07-29T01:52:59;11.80;64.80
71668;DHT22;59504;54.806;9.640;2022-07-29T01:55:07;11.80;64.90
71668;DHT22;59504;54.806;9.640;2022-07-29T01:57:13;11.70;64.90
71668;DHT22;59504;54.806;9.640;2022-07-29T01:59:16;11.70;64.90
71668;DHT22;59504;54.806;9.640;2022-07-29T02:01:19;11.70;65.00
71668;DHT22;59504;54.806;9.640;2022-07-29T02:03:21;11.70;65.00
71668;DHT22;59504;54.806;9.640;2022-07-29T02:05:24;11.70;65.10
71668;DHT22;59504;54.806;9.640;2022-07-29T02:07:29;11.60;65.10
71668;DHT22;59504;54.806;9.640;2022-07-29T02:09:34;11.60;65.20
71668;DHT22;59504;54.806;9.640;2022-07-29T02:11:37;11.60;65.20
71668;DHT22;59504;54.806;9.640;2022-07-29T02:13:39;11.60;65.20
71668;DHT22;59504;54.806;9.640;2022-07-29T02:15:42;11.60;65.10
71668;DHT22;59504;54.806;9.640;2022-07-29T02:17:50;11.50;65.00
71668;DHT22;59504;54.806;9.640;2022-07-29T02:19:56;11.50;65.10
71668;DHT22;59504;54.806;9.640;2022-07-29T02:21:58;11.50;65.00
71668;DHT22;59504;54.806;9.640;2022-07-29T02:24:01;11.50;65.20
71668;DHT22;59504;54.806;9.640;2022-07-29T02:26:03;11.50;65.30
71668;DHT22;59504;54.806;9.640;2022-07-29T02:28:05;11.40;65.10
71668;DHT22;59504;54.806;9.640;2022-07-29T02:30:07;11.40;65.20
71668;DHT22;59504;54.806;9.640;2022-07-29T02:32:10;11.40;65.20
71668;DHT22;59504;54.806;9.640;2022-07-29T02:34:15;11.30;65.20
71668;DHT22;59504;54.806;9.640;2022-07-29T02:36:18;11.30;65.10
71668;DHT22;59504;54.806;9.640;2022-07-29T02:38:22;11.30;65.70
71668;DHT22;59504;54.806;9.640;2022-07-29T02:40:43;11.30;64.90
71668;DHT22;59504;54.806;9.640;2022-07-29T02:42:44;11.30;64.90
71668;DHT22;59504;54.806;9.640;2022-07-29T02:44:46;11.20;64.90
71668;DHT22;59504;54.806;9.640;2022-07-29T02:47:11;11.20;65.00
71668;DHT22;59504;54.806;9.640;2022-07-29T02:49:33;11.10;65.20
71668;DHT22;59504;54.806;9.640;2022-07-29T02:51:57;11.10;65.10
71668;DHT22;59504;54.806;9.640;2022-07-29T02:54:01;11.10;65.10
71668;DHT22;59504;54.806;9.640;2022-07-29T02:56:10;11.00;65.00
71668;DHT22;59504;54.806;9.640;2022-07-29T02:58:27;11.00;65.00
71668;DHT22;59504;54.806;9.640;2022-07-29T03:00:31;11.00;65.20
71668;DHT22;59504;54.806;9.640;2022-07-29T03:02:42;11.00;65.00
71668;DHT22;59504;54.806;9.640;2022-07-29T03:04:44;10.90;65.10
71668;DHT22;59504;54.806;9.640;2022-07-29T03:06:47;10.90;65.10
71668;DHT22;59504;54.806;9.640;2022-07-29T03:08:49;10.80;65.10
71668;DHT22;59504;54.806;9.640;2022-07-29T03:10:51;10.80;65.50
71668;DHT22;59504;54.806;9.640;2022-07-29T03:12:54;10.80;65.80
71668;DHT22;59504;54.806;9.640;2022-07-29T03:14:56;10.80;65.90
71668;DHT22;59504;54.806;9.640;2022-07-29T03:16:57;10.80;65.90
71668;DHT22;59504;54.806;9.640;2022-07-29T03:18:59;10.80;66.00
71668;DHT22;59504;54.806;9.640;2022-07-29T03:21:01;10.80;66.10
71668;DHT22;59504;54.806;9.640;2022-07-29T03:23:02;10.70;66.00
71668;DHT22;59504;54.806;9.640;2022-07-29T03:25:14;10.70;66.00
71668;DHT22;59504;54.806;9.640;2022-07-29T03:27:15;10.70;66.30
71668;DHT22;59504;54.806;9.640;2022-07-29T03:29:15;10.70;66.20
71668;DHT22;59504;54.806;9.640;2022-07-29T03:31:16;10.70;66.20
71668;DHT22;59504;54.806;9.640;2022-07-29T03:33:17;10.70;66.30
71668;DHT22;59504;54.806;9.640;2022-07-29T03:35:19;10.70;66.40
71668;DHT22;59504;54.806;9.640;2022-07-29T03:37:22;10.70;66.30
71668;DHT22;59504;54.806;9.640;2022-07-29T03:39:24;10.70;66.40
71668;DHT22;59504;54.806;9.640;2022-07-29T03:41:26;10.70;66.40
71668;DHT22;59504;54.806;9.640;2022-07-29T03:43:30;10.70;66.50
71668;DHT22;59504;54.806;9.640;2022-07-29T03:45:54;10.70;66.60
71668;DHT22;59504;54.806;9.640;2022-07-29T03:48:17;10.60;66.60
71668;DHT22;59504;54.806;9.640;2022-07-29T03:50:21;10.70;66.70
71668;DHT22;59504;54.806;9.640;2022-07-29T03:52:42;10.70;66.90
71668;DHT22;59504;54.806;9.640;2022-07-29T03:55:03;10.70;67.10
71668;DHT22;59504;54.806;9.640;2022-07-29T03:57:26;10.70;67.20
71668;DHT22;59504;54.806;9.640;2022-07-29T03:59:48;10.70;67.30
71668;DHT22;59504;54.806;9.640;2022-07-29T04:02:11;10.70;67.30
71668;DHT22;59504;54.806;9.640;2022-07-29T04:04:33;10.70;67.50
71668;DHT22;59504;54.806;9.640;2022-07-29T04:06:54;10.80;67.70
71668;DHT22;59504;54.806;9.640;2022-07-29T04:09:15;10.80;68.10
71668;DHT22;59504;54.806;9.640;2022-07-29T04:11:37;10.80;68.40
71668;DHT22;59504;54.806;9.640;2022-07-29T04:13:58;10.90;69.10
71668;DHT22;59504;54.806;9.640;2022-07-29T04:16:19;11.00;70.60
71668;DHT22;59504;54.806;9.640;2022-07-29T04:18:39;11.00;70.40
71668;DHT22;59504;54.806;9.640;2022-07-29T04:21:00;11.10;71.00
71668;DHT22;59504;54.806;9.640;2022-07-29T04:23:21;11.20;71.50
71668;DHT22;59504;54.806;9.640;2022-07-29T04:25:42;11.30;71.90
71668;DHT22;59504;54.806;9.640;2022-07-29T04:27:43;11.40;72.30
71668;DHT22;59504;54.806;9.640;2022-07-29T04:30:00;11.50;72.70
71668;DHT22;59504;54.806;9.640;2022-07-29T04:32:02;11.60;72.90
71668;DHT22;59504;54.806;9.640;2022-07-29T04:34:03;11.70;73.10
71668;DHT22;59504;54.806;9.640;2022-07-29T04:36:04;11.80;73.10
71668;DHT22;59504;54.806;9.640;2022-07-29T04:38:05;11.90;73.40
71668;DHT22;59504;54.806;9.640;2022-07-29T04:40:06;12.00;73.90
71668;DHT22;59504;54.806;9.640;2022-07-29T04:42:07;12.10;74.00
71668;DHT22;59504;54.806;9.640;2022-07-29T04:44:08;12.20;74.60
71668;DHT22;59504;54.806;9.640;2022-07-29T04:46:08;12.30;75.10
71668;DHT22;59504;54.806;9.640;2022-07-29T04:48:10;12.40;75.60
71668;DHT22;59504;54.806;9.640;2022-07-29T04:50:11;12.60;75.60
71668;DHT22;59504;54.806;9.640;2022-07-29T04:52:11;12.70;76.10
71668;DHT22;59504;54.806;9.640;2022-07-29T04:54:12;12.80;75.30
71668;DHT22;59504;54.806;9.640;2022-07-29T04:56:13;12.90;75.60
71668;DHT22;59504;54.806;9.640;2022-07-29T04:58:14;13.00;75.50
71668;DHT22;59504;54.806;9.640;2022-07-29T05:00:14;13.10;75.60
71668;DHT22;59504;54.806;9.640;2022-07-29T05:02:15;13.30;76.00
71668;DHT22;59504;54.806;9.640;2022-07-29T05:04:16;13.30;75.60
71668;DHT22;59504;54.806;9.640;2022-07-29T05:06:17;13.40;75.60
71668;DHT22;59504;54.806;9.640;2022-07-29T05:08:27;13.50;75.30
71668;DHT22;59504;54.806;9.640;2022-07-29T05:10:48;13.60;75.70
71668;DHT22;59504;54.806;9.640;2022-07-29T05:13:08;13.70;75.80
71668;DHT22;59504;54.806;9.640;2022-07-29T05:15:29;13.80;75.60
71668;DHT22;59504;54.806;9.640;2022-07-29T05:17:49;13.90;75.80
71668;DHT22;59504;54.806;9.640;2022-07-29T05:20:10;13.90;75.60
71668;DHT22;59504;54.806;9.640;2022-07-29T05:22:31;14.00;75.90
71668;DHT22;59504;54.806;9.640;2022-07-29T05:24:52;14.20;75.70
71668;DHT22;59504;54.806;9.640;2022-07-29T05:27:13;14.20;75.50
71668;DHT22;59504;54.806;9.640;2022-07-29T05:29:33;14.20;75.60
71668;DHT22;59504;54.806;9.640;2022-07-29T05:31:54;14.30;75.50
71668;DHT22;59504;54.806;9.640;2022-07-29T05:34:14;14.40;75.90
71668;DHT22;59504;54.806;9.640;2022-07-29T05:36:35;14.40;75.70
71668;DHT22;59504;54.806;9.640;2022-07-29T05:38:56;14.50;76.00
71668;DHT22;59504;54.806;9.640;2022-07-29T05:41:16;14.60;75.60
71668;DHT22;59504;54.806;9.640;2022-07-29T05:43:37;14.60;75.50
71668;DHT22;59504;54.806;9.640;2022-07-29T05:45:58;14.60;75.50
71668;DHT22;59504;54.806;9.640;2022-07-29T05:48:19;14.70;75.50
71668;DHT22;59504;54.806;9.640;2022-07-29T05:50:39;14.80;75.40
71668;DHT22;59504;54.806;9.640;2022-07-29T05:53:00;14.80;75.40
71668;DHT22;59504;54.806;9.640;2022-07-29T05:55:21;14.90;75.80
71668;DHT22;59504;54.806;9.640;2022-07-29T05:57:41;14.90;75.70
71668;DHT22;59504;54.806;9.640;2022-07-29T05:59:43;14.90;75.50
71668;DHT22;59504;54.806;9.640;2022-07-29T06:01:44;15.00;75.30
71668;DHT22;59504;54.806;9.640;2022-07-29T06:03:45;15.00;75.20
71668;DHT22;59504;54.806;9.640;2022-07-29T06:05:46;15.10;75.00
71668;DHT22;59504;54.806;9.640;2022-07-29T06:07:46;15.20;75.20
71668;DHT22;59504;54.806;9.640;2022-07-29T06:09:47;15.20;75.20
71668;DHT22;59504;54.806;9.640;2022-07-29T06:11:48;15.30;74.90
71668;DHT22;59504;54.806;9.640;2022-07-29T06:13:48;15.30;74.90
71668;DHT22;59504;54.806;9.640;2022-07-29T06:15:49;15.40;74.40
71668;DHT22;59504;54.806;9.640;2022-07-29T06:17:50;15.40;74.00
71668;DHT22;59504;54.806;9.640;2022-07-29T06:19:50;15.50;73.70
71668;DHT22;59504;54.806;9.640;2022-07-29T06:21:51;15.60;73.30
71668;DHT22;59504;54.806;9.640;2022-07-29T06:23:52;15.70;72.90
71668;DHT22;59504;54.806;9.640;2022-07-29T06:25:52;15.70;72.10
71668;DHT22;59504;54.806;9.640;2022-07-29T06:27:53;15.70;70.20
71668;DHT22;59504;54.806;9.640;2022-07-29T06:29:53;15.80;69.10
71668;DHT22;59504;54.806;9.640;2022-07-29T06:31:54;15.80;68.60
71668;DHT22;59504;54.806;9.640;2022-07-29T06:33:55;15.90;67.60
71668;DHT22;59504;54.806;9.640;2022-07-29T06:35:56;15.90;67.50
71668;DHT22;59504;54.806;9.640;2022-07-29T06:37:57;16.00;67.40
71668;DHT22;59504;54.806;9.640;2022-07-29T06:39:57;16.10;67.70
71668;DHT22;59504;54.806;9.640;2022-07-29T06:42:17;16.10;67.70
71668;DHT22;59504;54.806;9.640;2022-07-29T06:44:18;16.30;67.60
71668;DHT22;59504;54.806;9.640;2022-07-29T06:46:36;16.40;67.30
71668;DHT22;59504;54.806;9.640;2022-07-29T06:49:16;16.50;66.50
71668;DHT22;59504;54.806;9.640;2022-07-29T06:51:37;16.60;64.90
71668;DHT22;59504;54.806;9.640;2022-07-29T06:56:38;16.80;64.10
71668;DHT22;59504;54.806;9.640;2022-07-29T07:02:24;17.10;63.20
71668;DHT22;59504;54.806;9.640;2022-07-29T07:05:12;17.20;62.70
71668;DHT22;59504;54.806;9.640;2022-07-29T07:07:13;17.30;60.30
71668;DHT22;59504;54.806;9.640;2022-07-29T07:15:52;17.50;59.70
71668;DHT22;59504;54.806;9.640;2022-07-29T07:18:14;17.70;59.40
71668;DHT22;59504;54.806;9.640;2022-07-29T07:20:35;17.60;59.50
71668;DHT22;59504;54.806;9.640;2022-07-29T07:23:05;17.70;59.40
71668;DHT22;59504;54.806;9.640;2022-07-29T07:25:31;17.70;59.70
71668;DHT22;59504;54.806;9.640;2022-07-29T07:27:51;17.80;60.00
71668;DHT22;59504;54.806;9.640;2022-07-29T07:39:46;18.10;60.00
71668;DHT22;59504;54.806;9.640;2022-07-29T07:42:07;18.20;61.10
71668;DHT22;59504;54.806;9.640;2022-07-29T07:44:55;18.30;61.00
71668;DHT22;59504;54.806;9.640;2022-07-29T08:08:51;18.70;59.10
71668;DHT22;59504;54.806;9.640;2022-07-29T08:11:32;18.70;59.00
71668;DHT22;59504;54.806;9.640;2022-07-29T08:14:29;18.70;58.40
71668;DHT22;59504;54.806;9.640;2022-07-29T08:19:59;18.80;58.80
71668;DHT22;59504;54.806;9.640;2022-07-29T08:22:41;18.70;58.90
71668;DHT22;59504;54.806;9.640;2022-07-29T08:28:11;18.60;59.10
71668;DHT22;59504;54.806;9.640;2022-07-29T08:30:12;18.60;59.40
71668;DHT22;59504;54.806;9.640;2022-07-29T08:32:14;18.60;59.60
71668;DHT22;59504;54.806;9.640;2022-07-29T08:34:15;18.60;59.90
71668;DHT22;59504;54.806;9.640;2022-07-29T08:36:15;18.70;59.80
71668;DHT22;59504;54.806;9.640;2022-07-29T08:38:16;18.60;59.60
71668;DHT22;59504;54.806;9.640;2022-07-29T08:40:17;18.70;59.60
71668;DHT22;59504;54.806;9.640;2022-07-29T08:42:18;18.60;59.10
71668;DHT22;59504;54.806;9.640;2022-07-29T08:44:19;18.70;58.60
71668;DHT22;59504;54.806;9.640;2022-07-29T08:46:21;18.70;58.10
71668;DHT22;59504;54.806;9.640;2022-07-29T08:48:23;18.80;58.10
71668;DHT22;59504;54.806;9.640;2022-07-29T08:50:25;18.70;57.90
71668;DHT22;59504;54.806;9.640;2022-07-29T08:52:33;18.80;57.80
71668;DHT22;59504;54.806;9.640;2022-07-29T08:54:36;18.80;57.80
71668;DHT22;59504;54.806;9.640;2022-07-29T08:56:38;18.90;57.70
71668;DHT22;59504;54.806;9.640;2022-07-29T08:58:41;18.90;58.20
71668;DHT22;59504;54.806;9.640;2022-07-29T09:01:08;18.80;57.80
71668;DHT22;59504;54.806;9.640;2022-07-29T09:03:18;18.80;56.60
71668;DHT22;59504;54.806;9.640;2022-07-29T09:05:19;18.90;57.10
71668;DHT22;59504;54.806;9.640;2022-07-29T09:07:20;19.00;56.70
71668;DHT22;59504;54.806;9.640;2022-07-29T09:09:24;19.00;56.10
71668;DHT22;59504;54.806;9.640;2022-07-29T09:11:25;19.00;55.60
71668;DHT22;59504;54.806;9.640;2022-07-29T09:13:29;19.00;55.20
71668;DHT22;59504;54.806;9.640;2022-07-29T09:15:29;19.10;55.00
71668;DHT22;59504;54.806;9.640;2022-07-29T09:17:46;19.00;55.60
71668;DHT22;59504;54.806;9.640;2022-07-29T09:19:47;19.00;54.80
71668;DHT22;59504;54.806;9.640;2022-07-29T09:21:48;19.00;55.00
71668;DHT22;59504;54.806;9.640;2022-07-29T09:26:09;18.90;55.60
71668;DHT22;59504;54.806;9.640;2022-07-29T09:28:12;18.90;55.50
71668;DHT22;59504;54.806;9.640;2022-07-29T09:30:13;18.90;55.00
71668;DHT22;59504;54.806;9.640;2022-07-29T09:32:14;18.90;54.70
71668;DHT22;59504;54.806;9.640;2022-07-29T09:34:21;19.00;55.00
71668;DHT22;59504;54.806;9.640;2022-07-29T09:36:23;19.10;55.40
71668;DHT22;59504;54.806;9.640;2022-07-29T09:38:24;19.10;54.90
71668;DHT22;59504;54.806;9.640;2022-07-29T09:40:27;19.10;54.40
71668;DHT22;59504;54.806;9.640;2022-07-29T09:42:29;19.10;54.90
71668;DHT22;59504;54.806;9.640;2022-07-29T09:44:48;19.10;55.40
71668;DHT22;59504;54.806;9.640;2022-07-29T09:47:00;19.10;55.60
71668;DHT22;59504;54.806;9.640;2022-07-29T09:49:27;19.10;54.70
71668;DHT22;59504;54.806;9.640;2022-07-29T09:51:28;19.10;54.50
71668;DHT22;59504;54.806;9.640;2022-07-29T09:53:49;19.10;55.20
71668;DHT22;59504;54.806;9.640;2022-07-29T09:56:10;19.10;55.50
71668;DHT22;59504;54.806;9.640;2022-07-29T09:58:19;19.10;55.80
71668;DHT22;59504;54.806;9.640;2022-07-29T10:00:42;19.20;56.40
71668;DHT22;59504;54.806;9.640;2022-07-29T10:03:03;19.20;55.70
71668;DHT22;59504;54.806;9.640;2022-07-29T10:05:21;19.30;56.40
71668;DHT22;59504;54.806;9.640;2022-07-29T10:07:55;19.20;56.40
71668;DHT22;59504;54.806;9.640;2022-07-29T10:10:31;19.30;56.10
71668;DHT22;59504;54.806;9.640;2022-07-29T10:13:20;19.30;55.20
71668;DHT22;59504;54.806;9.640;2022-07-29T10:15:43;19.30;55.60
71668;DHT22;59504;54.806;9.640;2022-07-29T10:18:09;19.30;55.70
71668;DHT22;59504;54.806;9.640;2022-07-29T10:20:30;19.40;55.10
71668;DHT22;59504;54.806;9.640;2022-07-29T10:23:17;19.50;55.00
71668;DHT22;59504;54.806;9.640;2022-07-29T10:25:53;19.60;55.50
71668;DHT22;59504;54.806;9.640;2022-07-29T10:28:23;19.50;55.10
71668;DHT22;59504;54.806;9.640;2022-07-29T10:34:02;19.50;56.00
71668;DHT22;59504;54.806;9.640;2022-07-29T10:39:55;19.40;55.70
71668;DHT22;59504;54.806;9.640;2022-07-29T10:42:29;19.50;56.40
71668;DHT22;59504;54.806;9.640;2022-07-29T10:47:28;19.50;55.10
71668;DHT22;59504;54.806;9.640;2022-07-29T10:49:30;19.50;54.80
71668;DHT22;59504;54.806;9.640;2022-07-29T11:09:19;19.70;54.00
71668;DHT22;59504;54.806;9.640;2022-07-29T11:13:51;19.70;54.00
71668;DHT22;59504;54.806;9.640;2022-07-29T11:16:21;19.80;53.80
71668;DHT22;59504;54.806;9.640;2022-07-29T11:25:40;19.70;53.50
71668;DHT22;59504;54.806;9.640;2022-07-29T11:28:13;19.70;53.20
71668;DHT22;59504;54.806;9.640;2022-07-29T11:30:53;19.70;53.60
71668;DHT22;59504;54.806;9.640;2022-07-29T11:33:33;19.70;53.90
71668;DHT22;59504;54.806;9.640;2022-07-29T11:36:11;19.70;54.10
71668;DHT22;59504;54.806;9.640;2022-07-29T11:38:32;19.80;53.80
71668;DHT22;59504;54.806;9.640;2022-07-29T11:43:48;19.90;52.40
71668;DHT22;59504;54.806;9.640;2022-07-29T11:46:09;19.90;51.60
71668;DHT22;59504;54.806;9.640;2022-07-29T11:48:30;19.90;50.00
71668;DHT22;59504;54.806;9.640;2022-07-29T11:50:51;20.00;50.50
71668;DHT22;59504;54.806;9.640;2022-07-29T11:52:52;20.10;50.10
71668;DHT22;59504;54.806;9.640;2022-07-29T11:54:57;20.00;50.70
71668;DHT22;59504;54.806;9.640;2022-07-29T11:56:59;20.10;50.60
71668;DHT22;59504;54.806;9.640;2022-07-29T11:59:07;20.10;50.90
71668;DHT22;59504;54.806;9.640;2022-07-29T12:01:13;20.20;51.20
71668;DHT22;59504;54.806;9.640;2022-07-29T12:03:24;20.20;49.80
71668;DHT22;59504;54.806;9.640;2022-07-29T12:05:39;20.30;49.90
71668;DHT22;59504;54.806;9.640;2022-07-29T12:07:40;20.40;49.40
71668;DHT22;59504;54.806;9.640;2022-07-29T12:09:50;20.30;48.80
71668;DHT22;59504;54.806;9.640;2022-07-29T12:11:59;20.30;48.60
71668;DHT22;59504;54.806;9.640;2022-07-29T12:13:59;20.40;49.10
71668;DHT22;59504;54.806;9.640;2022-07-29T12:16:00;20.30;49.60
71668;DHT22;59504;54.806;9.640;2022-07-29T12:18:11;20.40;50.00
71668;DHT22;59504;54.806;9.640;2022-07-29T12:20:12;20.30;49.30
71668;DHT22;59504;54.806;9.640;2022-07-29T12:22:28;20.30;49.60
71668;DHT22;59504;54.806;9.640;2022-07-29T12:24:43;20.40;49.10
71668;DHT22;59504;54.806;9.640;2022-07-29T12:26:54;20.40;48.50
71668;DHT22;59504;54.806;9.640;2022-07-29T12:28:55;20.50;48.90
71668;DHT22;59504;54.806;9.640;2022-07-29T12:30:56;20.60;48.50
71668;DHT22;59504;54.806;9.640;2022-07-29T12:32:57;20.60;47.40
71668;DHT22;59504;54.806;9.640;2022-07-29T12:34:58;20.60;46.40
71668;DHT22;59504;54.806;9.640;2022-07-29T12:36:59;20.60;46.30
71668;DHT22;59504;54.806;9.640;2022-07-29T12:39:02;20.70;45.40
71668;DHT22;59504;54.806;9.640;2022-07-29T12:41:03;20.60;44.60
71668;DHT22;59504;54.806;9.640;2022-07-29T12:43:11;20.70;45.00
71668;DHT22;59504;54.806;9.640;2022-07-29T12:45:12;20.70;43.90
71668;DHT22;59504;54.806;9.640;2022-07-29T12:47:14;20.60;43.60
71668;DHT22;59504;54.806;9.640;2022-07-29T12:49:22;20.60;43.20
71668;DHT22;59504;54.806;9.640;2022-07-29T12:51:34;20.60;44.20
71668;DHT22;59504;54.806;9.640;2022-07-29T12:53:38;20.60;44.50
71668;DHT22;59504;54.806;9.640;2022-07-29T12:55:44;20.50;44.40
71668;DHT22;59504;54.806;9.640;2022-07-29T12:58:09;20.50;44.40
71668;DHT22;59504;54.806;9.640;2022-07-29T13:00:30;20.50;44.90
71668;DHT22;59504;54.806;9.640;2022-07-29T13:02:58;20.50;45.50
71668;DHT22;59504;54.806;9.640;2022-07-29T13:05:19;20.50;46.00
71668;DHT22;59504;54.806;9.640;2022-07-29T13:07:40;20.50;45.60
71668;DHT22;59504;54.806;9.640;2022-07-29T13:12:33;20.60;44.60
71668;DHT22;59504;54.806;9.640;2022-07-29T13:14:54;20.70;44.40
71668;DHT22;59504;54.806;9.640;2022-07-29T13:19:49;20.80;44.00
71668;DHT22;59504;54.806;9.640;2022-07-29T13:22:12;20.90;44.30
71668;DHT22;59504;54.806;9.640;2022-07-29T13:24:33;20.90;42.80
71668;DHT22;59504;54.806;9.640;2022-07-29T13:26:54;20.90;43.40
71668;DHT22;59504;54.806;9.640;2022-07-29T13:28:55;20.90;43.10
71668;DHT22;59504;54.806;9.640;2022-07-29T13:30:56;20.90;43.50
71668;DHT22;59504;54.806;9.640;2022-07-29T13:32:56;21.00;43.20
71668;DHT22;59504;54.806;9.640;2022-07-29T13:34:59;21.00;43.80
71668;DHT22;59504;54.806;9.640;2022-07-29T13:37:00;21.00;43.60
71668;DHT22;59504;54.806;9.640;2022-07-29T13:39:01;21.00;43.40
71668;DHT22;59504;54.806;9.640;2022-07-29T13:41:03;21.10;44.00
71668;DHT22;59504;54.806;9.640;2022-07-29T13:43:03;21.20;43.80
71668;DHT22;59504;54.806;9.640;2022-07-29T13:45:05;21.20;43.50
71668;DHT22;59504;54.806;9.640;2022-07-29T13:47:07;21.20;43.30
71668;DHT22;59504;54.806;9.640;2022-07-29T13:49:08;21.30;43.20
71668;DHT22;59504;54.806;9.640;2022-07-29T13:51:09;21.30;42.20
71668;DHT22;59504;54.806;9.640;2022-07-29T13:53:09;21.30;41.90
71668;DHT22;59504;54.806;9.640;2022-07-29T13:55:10;21.30;41.30
71668;DHT22;59504;54.806;9.640;2022-07-29T13:57:11;21.40;41.00
71668;DHT22;59504;54.806;9.640;2022-07-29T13:59:12;21.50;41.20
71668;DHT22;59504;54.806;9.640;2022-07-29T14:01:13;21.50;39.70
71668;DHT22;59504;54.806;9.640;2022-07-29T14:03:14;21.50;39.90
71668;DHT22;59504;54.806;9.640;2022-07-29T14:05:14;21.50;39.50
71668;DHT22;59504;54.806;9.640;2022-07-29T14:07:15;21.50;39.20
71668;DHT22;59504;54.806;9.640;2022-07-29T14:09:19;21.50;36.60
71668;DHT22;59504;54.806;9.640;2022-07-29T14:11:19;21.40;38.40
71668;DHT22;59504;54.806;9.640;2022-07-29T14:13:20;21.50;39.30
71668;DHT22;59504;54.806;9.640;2022-07-29T14:15:21;21.50;40.10
71668;DHT22;59504;54.806;9.640;2022-07-29T14:17:21;21.50;40.00
71668;DHT22;59504;54.806;9.640;2022-07-29T14:19:23;21.60;40.20
71668;DHT22;59504;54.806;9.640;2022-07-29T14:21:23;21.60;40.30
71668;DHT22;59504;54.806;9.640;2022-07-29T14:23:25;21.70;40.60
71668;DHT22;59504;54.806;9.640;2022-07-29T14:25:26;21.70;40.80
71668;DHT22;59504;54.806;9.640;2022-07-29T14:27:43;21.70;39.70
71668;DHT22;59504;54.806;9.640;2022-07-29T14:30:04;21.70;39.60
71668;DHT22;59504;54.806;9.640;2022-07-29T14:32:25;21.70;39.40
71668;DHT22;59504;54.806;9.640;2022-07-29T14:34:39;21.70;40.40
71668;DHT22;59504;54.806;9.640;2022-07-29T14:37:08;21.70;40.60
71668;DHT22;59504;54.806;9.640;2022-07-29T14:39:29;21.70;38.90
71668;DHT22;59504;54.806;9.640;2022-07-29T14:41:50;21.70;37.50
71668;DHT22;59504;54.806;9.640;2022-07-29T14:44:11;21.70;36.70
71668;DHT22;59504;54.806;9.640;2022-07-29T14:46:32;21.70;37.30
71668;DHT22;59504;54.806;9.640;2022-07-29T14:48:35;21.60;39.00
71668;DHT22;59504;54.806;9.640;2022-07-29T14:50:56;21.60;38.90
71668;DHT22;59504;54.806;9.640;2022-07-29T14:53:16;21.50;37.90
71668;DHT22;59504;54.806;9.640;2022-07-29T14:55:37;21.50;39.20
71668;DHT22;59504;54.806;9.640;2022-07-29T14:57:58;21.50;39.70
71668;DHT22;59504;54.806;9.640;2022-07-29T15:00:19;21.50;38.90
71668;DHT22;59504;54.806;9.640;2022-07-29T15:02:41;21.40;39.10
71668;DHT22;59504;54.806;9.640;2022-07-29T15:05:01;21.40;39.40
71668;DHT22;59504;54.806;9.640;2022-07-29T15:07:22;21.40;40.40
71668;DHT22;59504;54.806;9.640;2022-07-29T15:09:43;21.30;41.60
71668;DHT22;59504;54.806;9.640;2022-07-29T15:11:45;21.40;41.50
71668;DHT22;59504;54.806;9.640;2022-07-29T15:13:46;21.30;41.70
71668;DHT22;59504;54.806;9.640;2022-07-29T15:15:47;21.30;41.30
71668;DHT22;59504;54.806;9.640;2022-07-29T15:17:48;21.20;41.60
71668;DHT22;59504;54.806;9.640;2022-07-29T15:19:48;21.20;42.50
71668;DHT22;59504;54.806;9.640;2022-07-29T15:21:49;21.20;42.60
71668;DHT22;59504;54.806;9.640;2022-07-29T15:23:50;21.20;42.80
71668;DHT22;59504;54.806;9.640;2022-07-29T15:25:50;21.20;43.50